Time;durP1;ratioP1;P1;durP2;ratioP2;P2;SDS_P1;SDS_P2;PMS_P1;PMS_P2;Temp;Humidity;BMP_temperature;BMP_pressure;BME280_temperature;BME280_humidity;BME280_pressure;Samples;Min_cycle;Max_cycle;Signal;HPM_P1;HPM_P2
2024/01/29 00:01:14;;;;;;;40.70;36.70;;;;;;;-0.24;100.00;99759.30;106695;1287;22768;-92
2024/01/29 00:03:49;;;;;;;41.70;37.40;;;;;;;-0.24;100.00;99754.79;106704;1287;22589;-90
2024/01/29 00:06:18;;;;;;;46.90;42.50;;;;;;;-0.28;100.00;99746.84;106773;1287;25337;-87
2024/01/29 00:08:46;;;;;;;45.00;40.30;;;;;;;-0.29;100.00;99745.98;106709;1287;22550;-86
2024/01/29 00:11:14;;;;;;;44.30;39.80;;;;;;;-0.32;100.00;99752.05;106453;1282;24270;-82
2024/01/29 00:13:44;;;;;;;48.60;43.70;;;;;;;-0.34;100.00;99750.91;106463;1284;25459;-82
2024/01/29 00:16:13;;;;;;;54.30;49.10;;;;;;;-0.39;100.00;99750.52;108626;1287;22546;-92
2024/01/29 00:18:41;;;;;;;52.00;46.90;;;;;;;-0.45;100.00;99757.03;107369;1287;24386;-86
2024/01/29 00:21:09;;;;;;;52.80;47.90;;;;;;;-0.50;100.00;99762.71;106513;1286;25490;-90
2024/01/29 00:23:37;;;;;;;47.50;42.80;;;;;;;-0.52;100.00;99770.41;106761;1287;22756;-87
2024/01/29 00:26:05;;;;;;;44.60;40.30;;;;;;;-0.53;100.00;99771.59;106617;1287;22706;-81
2024/01/29 00:28:33;;;;;;;43.90;39.70;;;;;;;-0.37;100.00;99773.64;106466;1287;22547;-87
2024/01/29 00:31:01;;;;;;;43.30;39.20;;;;;;;-0.23;100.00;99765.65;106651;1286;23258;-85
2024/01/29 00:33:29;;;;;;;43.40;39.20;;;;;;;-0.19;100.00;99765.83;106534;1286;22566;-82
2024/01/29 00:35:59;;;;;;;44.20;40.10;;;;;;;-0.21;100.00;99768.86;106763;1280;24185;-87
2024/01/29 00:38:27;;;;;;;43.50;39.30;;;;;;;-0.27;100.00;99766.41;107004;1278;24207;-90
2024/01/29 00:40:55;;;;;;;40.10;36.10;;;;;;;-0.34;100.00;99767.91;109617;1267;22559;-87
2024/01/29 00:43:23;;;;;;;38.00;34.30;;;;;;;-0.38;100.00;99764.63;108546;1278;22576;-92
2024/01/29 00:45:51;;;;;;;37.00;33.30;;;;;;;-0.39;100.00;99766.98;108864;1270;22556;-94
2024/01/29 00:48:22;;;;;;;39.20;35.30;;;;;;;-0.39;100.00;99764.25;108494;1284;22556;-91
2024/01/29 00:50:55;;;;;;;37.00;33.40;;;;;;;-0.38;100.00;99769.29;109088;1285;24250;-90
2024/01/29 00:53:24;;;;;;;38.80;35.30;;;;;;;-0.39;100.00;99773.49;107798;1285;26580;-91
2024/01/29 00:55:53;;;;;;;34.30;31.00;;;;;;;-0.42;100.00;99773.13;108528;1280;22624;-89
2024/01/29 00:58:22;;;;;;;35.70;32.20;;;;;;;-0.46;100.00;99776.74;108230;1278;22601;-90
2024/01/29 01:00:50;;;;;;;35.10;31.60;;;;;;;-0.47;100.00;99776.40;108641;1278;22247;-89
2024/01/29 01:03:19;;;;;;;31.80;28.80;;;;;;;-0.48;100.00;99782.95;108226;1280;22660;-91
2024/01/29 01:05:47;;;;;;;33.00;29.60;;;;;;;-0.48;100.00;99783.85;108458;1285;22571;-87
2024/01/29 01:08:15;;;;;;;34.90;31.50;;;;;;;-0.47;100.00;99793.52;108133;1284;22583;-90
2024/01/29 01:10:43;;;;;;;36.00;32.50;;;;;;;-0.49;100.00;99797.27;106989;1282;22507;-88
2024/01/29 01:13:10;;;;;;;38.00;34.20;;;;;;;-0.53;100.00;99801.08;106930;1280;24352;-89
2024/01/29 01:15:38;;;;;;;38.00;34.40;;;;;;;-0.60;100.00;99799.10;107228;1280;22668;-85
2024/01/29 01:18:10;;;;;;;37.20;33.60;;;;;;;-0.64;100.00;99800.65;106756;1285;22521;-89
2024/01/29 01:20:38;;;;;;;36.40;32.70;;;;;;;-0.68;100.00;99802.35;106553;1278;22581;-87
2024/01/29 01:23:06;;;;;;;40.80;36.80;;;;;;;-0.71;100.00;99798.09;106871;1286;22630;-84
2024/01/29 01:25:34;;;;;;;40.60;36.70;;;;;;;-0.75;100.00;99798.52;106399;1278;25508;-85
2024/01/29 01:28:02;;;;;;;40.60;36.90;;;;;;;-0.77;100.00;99799.69;106396;1280;22571;-88
2024/01/29 01:30:30;;;;;;;40.40;36.40;;;;;;;-0.80;100.00;99803.49;106439;1279;22537;-85
2024/01/29 01:32:59;;;;;;;38.80;34.90;;;;;;;-0.81;100.00;99800.87;106429;1286;25524;-83
2024/01/29 01:35:27;;;;;;;37.80;34.10;;;;;;;-0.80;100.00;99801.91;106393;1263;24235;-81
2024/01/29 01:37:54;;;;;;;41.10;37.10;;;;;;;-0.77;100.00;99800.73;106429;1286;22579;-90
2024/01/29 01:40:22;;;;;;;41.50;37.20;;;;;;;-0.75;100.00;99802.07;106457;1286;22546;-85
2024/01/29 01:42:50;;;;;;;41.40;37.40;;;;;;;-0.70;100.00;99797.98;108040;1286;22508;-84
2024/01/29 01:45:18;;;;;;;44.40;40.20;;;;;;;-0.70;100.00;99794.22;106977;1262;24206;-87
2024/01/29 01:47:47;;;;;;;44.80;40.60;;;;;;;-0.69;100.00;99793.98;106461;1286;22691;-88
2024/01/29 01:50:15;;;;;;;42.20;38.00;;;;;;;-0.71;100.00;99791.41;106376;1286;25432;-87
2024/01/29 01:52:43;;;;;;;42.20;38.10;;;;;;;-0.73;100.00;99790.04;106419;1276;22782;-84
2024/01/29 01:55:11;;;;;;;42.40;38.40;;;;;;;-0.73;100.00;99792.58;106925;1286;22536;-84
2024/01/29 01:57:46;;;;;;;47.20;42.50;;;;;;;-0.73;100.00;99790.04;108052;1280;22708;-92
2024/01/29 02:00:14;;;;;;;49.00;44.40;;;;;;;-0.77;100.00;99782.13;107266;1264;22656;-89
2024/01/29 02:02:42;;;;;;;50.60;45.80;;;;;;;-0.83;100.00;99780.42;106570;1286;24081;-90
2024/01/29 02:05:12;;;;;;;47.70;43.00;;;;;;;-0.94;100.00;99776.73;107440;1286;22595;-89
2024/01/29 02:07:40;;;;;;;47.90;43.20;;;;;;;-1.00;100.00;99775.12;108919;1286;22497;-88
2024/01/29 02:10:08;;;;;;;49.20;44.10;;;;;;;-1.01;100.00;99771.62;109848;1268;25090;-83
2024/01/29 02:12:36;;;;;;;43.60;39.30;;;;;;;-0.99;100.00;99770.85;109123;1285;25419;-91
2024/01/29 02:15:04;;;;;;;44.50;40.20;;;;;;;-0.97;100.00;99765.80;108898;1285;22499;-93
2024/01/29 02:17:32;;;;;;;48.00;43.50;;;;;;;-0.97;100.00;99764.44;108894;1285;22679;-89
2024/01/29 02:20:00;;;;;;;44.20;40.00;;;;;;;-0.99;100.00;99760.35;108951;1280;22331;-90
2024/01/29 02:22:29;;;;;;;40.70;36.80;;;;;;;-1.01;100.00;99764.54;109429;1265;22587;-93
2024/01/29 02:24:57;;;;;;;41.20;37.20;;;;;;;-0.99;100.00;99756.89;108689;1278;22285;-90
2024/01/29 02:27:25;;;;;;;42.20;38.20;;;;;;;-0.97;100.00;99751.30;108751;1282;22562;-90
2024/01/29 02:29:53;;;;;;;40.30;36.40;;;;;;;-0.92;100.00;99747.77;108543;1285;22579;-91
2024/01/29 02:32:21;;;;;;;40.50;36.50;;;;;;;-0.91;100.00;99744.97;109095;1268;22795;-91
2024/01/29 02:34:49;;;;;;;42.90;38.80;;;;;;;-0.93;100.00;99745.05;107706;1285;22500;-90
2024/01/29 02:37:17;;;;;;;45.50;41.30;;;;;;;-0.97;100.00;99750.77;107016;1285;23430;-90
2024/01/29 02:39:45;;;;;;;44.30;39.50;;;;;;;-1.00;100.00;99755.27;106759;1285;22598;-89
2024/01/29 02:42:13;;;;;;;42.00;37.90;;;;;;;-1.03;100.00;99754.83;106690;1280;22552;-87
2024/01/29 02:44:41;;;;;;;43.20;38.80;;;;;;;-1.03;100.00;99758.92;106648;1286;22620;-86
2024/01/29 02:47:09;;;;;;;40.60;36.70;;;;;;;-1.03;100.00;99759.63;106611;1286;23911;-91
2024/01/29 02:49:37;;;;;;;40.00;36.10;;;;;;;-1.03;100.00;99756.29;106670;1280;23329;-87
2024/01/29 02:52:05;;;;;;;43.00;38.90;;;;;;;-1.03;100.00;99759.64;106645;1285;22565;-87
2024/01/29 02:54:33;;;;;;;42.80;38.50;;;;;;;-1.04;100.00;99761.70;107068;1285;25868;-86
2024/01/29 02:57:02;;;;;;;43.00;39.20;;;;;;;-1.05;100.00;99763.23;106594;1279;22705;-85
2024/01/29 02:59:30;;;;;;;40.90;37.00;;;;;;;-1.07;100.00;99756.89;106996;1285;24764;-85
2024/01/29 03:01:59;;;;;;;35.80;32.50;;;;;;;-1.08;100.00;99756.52;107910;1286;22571;-89
2024/01/29 03:04:27;;;;;;;34.10;30.70;;;;;;;-1.08;100.00;99755.92;107906;1279;22580;-89
2024/01/29 03:06:56;;;;;;;32.60;29.40;;;;;;;-1.05;100.00;99759.64;108556;1280;23903;-90
2024/01/29 03:09:24;;;;;;;32.00;28.90;;;;;;;-1.00;100.00;99756.49;108267;1279;22502;-93
2024/01/29 03:11:52;;;;;;;31.20;28.30;;;;;;;-0.97;100.00;99759.97;108897;1280;23024;-91
2024/01/29 03:14:20;;;;;;;32.80;29.90;;;;;;;-0.95;100.00;99760.38;109723;1286;22551;-90
2024/01/29 03:16:51;;;;;;;35.70;32.20;;;;;;;-0.95;100.00;99759.48;107635;1286;22647;-90
2024/01/29 03:19:20;;;;;;;34.60;31.30;;;;;;;-0.96;100.00;99765.86;107106;1286;24698;-89
2024/01/29 03:21:48;;;;;;;32.80;29.80;;;;;;;-0.96;100.00;99763.66;107127;1280;22744;-87
2024/01/29 03:24:16;;;;;;;31.30;28.30;;;;;;;-0.96;100.00;99757.02;106515;1284;22548;-88
2024/01/29 03:26:44;;;;;;;29.70;26.80;;;;;;;-0.93;100.00;99760.70;108443;1287;22300;-87
2024/01/29 03:29:18;;;;;;;33.30;30.20;;;;;;;-0.87;100.00;99764.16;109701;1269;22696;31
2024/01/29 03:31:54;;;;;;;35.40;32.10;;;;;;;-0.85;100.00;99760.00;99605;1274;22358;-85
2024/01/29 03:34:27;;;;;;;37.70;34.30;;;;;;;-0.85;100.00;99752.82;109543;1266;22566;-87
2024/01/29 03:36:56;;;;;;;35.30;31.90;;;;;;;-0.87;100.00;99754.10;109783;1266;21831;-86
2024/01/29 03:39:29;;;;;;;38.20;34.60;;;;;;;-0.87;100.00;99751.33;110036;1260;22369;-87
2024/01/29 03:42:05;;;;;;;37.80;34.40;;;;;;;-0.89;100.00;99752.90;109898;1269;23697;31
2024/01/29 03:44:38;;;;;;;33.90;30.70;;;;;;;-0.84;100.00;99758.02;99242;1270;22357;-84
2024/01/29 03:47:13;;;;;;;36.60;33.30;;;;;;;-0.86;100.00;99747.45;109830;1271;22263;-87
2024/01/29 03:49:43;;;;;;;37.20;33.80;;;;;;;-0.81;100.00;99748.95;109581;1268;22794;-91
2024/01/29 03:52:11;;;;;;;36.70;33.40;;;;;;;-0.84;100.00;99746.10;109676;1282;22549;-90
2024/01/29 03:54:39;;;;;;;33.90;30.80;;;;;;;-0.83;100.00;99745.90;109719;1289;22421;-91
2024/01/29 03:57:06;;;;;;;31.80;28.90;;;;;;;-0.83;100.00;99738.41;109643;1289;22593;-91
2024/01/29 03:59:34;;;;;;;31.70;28.90;;;;;;;-0.79;100.00;99738.64;109578;1289;22896;-93
2024/01/29 04:02:03;;;;;;;31.30;28.30;;;;;;;-0.77;100.00;99737.17;109307;1287;23839;-91
2024/01/29 04:04:31;;;;;;;29.90;27.10;;;;;;;-0.76;100.00;99727.90;109569;1282;22585;-89
2024/01/29 04:07:00;;;;;;;32.50;29.50;;;;;;;-0.74;100.00;99724.67;109375;1288;23701;-91
2024/01/29 04:09:28;;;;;;;32.50;29.30;;;;;;;-0.75;100.00;99720.22;109439;1285;22588;-92
2024/01/29 04:11:56;;;;;;;34.20;31.00;;;;;;;-0.76;100.00;99723.47;109393;1283;22580;-88
2024/01/29 04:14:24;;;;;;;31.30;28.50;;;;;;;-0.76;100.00;99724.69;109458;1285;22221;-93
2024/01/29 04:16:52;;;;;;;31.40;28.30;;;;;;;-0.76;100.00;99724.73;109332;1286;22571;-93
2024/01/29 04:19:20;;;;;;;32.20;29.10;;;;;;;-0.74;100.00;99724.59;107973;1289;22570;-93
2024/01/29 04:21:48;;;;;;;31.30;28.30;;;;;;;-0.72;100.00;99723.75;107268;1289;23403;-89
2024/01/29 04:24:16;;;;;;;32.00;29.00;;;;;;;-0.71;100.00;99721.66;106154;1280;23347;-86
2024/01/29 04:26:44;;;;;;;33.50;30.30;;;;;;;-0.69;100.00;99720.06;106205;1283;25281;-85
2024/01/29 04:29:12;;;;;;;35.70;32.50;;;;;;;-0.71;100.00;99712.83;106221;1283;24346;-87
2024/01/29 04:31:41;;;;;;;34.20;30.90;;;;;;;-0.76;100.00;99709.56;106313;1284;22564;-88
2024/01/29 04:34:09;;;;;;;32.70;29.30;;;;;;;-0.81;100.00;99711.33;106317;1283;22566;-88
2024/01/29 04:36:37;;;;;;;32.20;29.10;;;;;;;-0.84;100.00;99715.80;106296;1286;23900;-89
2024/01/29 04:39:06;;;;;;;31.50;28.60;;;;;;;-0.84;100.00;99720.04;106353;1283;22545;-88
2024/01/29 04:41:33;;;;;;;31.60;28.60;;;;;;;-0.83;100.00;99713.38;106258;1285;22635;-87
2024/01/29 04:44:02;;;;;;;29.90;27.20;;;;;;;-0.82;100.00;99709.00;106293;1283;25274;-90
2024/01/29 04:46:33;;;;;;;32.50;29.50;;;;;;;-0.80;100.00;99707.59;109255;1289;22635;-89
2024/01/29 04:49:02;;;;;;;33.10;30.20;;;;;;;-0.80;100.00;99711.63;106331;1289;22653;-88
2024/01/29 04:51:30;;;;;;;33.50;30.40;;;;;;;-0.81;100.00;99712.59;106116;1287;22571;-87
2024/01/29 04:54:00;;;;;;;32.00;29.20;;;;;;;-0.83;100.00;99706.63;106339;1284;24281;-88
2024/01/29 04:56:28;;;;;;;31.60;28.70;;;;;;;-0.87;100.00;99702.52;106382;1286;25030;-89
2024/01/29 04:58:56;;;;;;;35.20;31.70;;;;;;;-0.85;100.00;99709.92;106361;1285;22626;-90
2024/01/29 05:01:24;;;;;;;35.80;32.50;;;;;;;-0.85;100.00;99712.60;106481;1289;22607;-91
2024/01/29 05:03:53;;;;;;;37.30;34.00;;;;;;;-0.87;100.00;99709.48;106706;1289;23881;-91
2024/01/29 05:06:21;;;;;;;43.40;39.50;;;;;;;-0.91;100.00;99710.57;106678;1289;22632;-91
2024/01/29 05:08:50;;;;;;;41.10;37.20;;;;;;;-0.98;100.00;99710.86;106611;1289;22577;-89
2024/01/29 05:11:18;;;;;;;35.50;32.10;;;;;;;-1.02;100.00;99715.27;106698;1286;22583;-91
2024/01/29 05:13:46;;;;;;;34.80;31.60;;;;;;;-1.00;100.00;99714.48;106753;1289;22652;-91
2024/01/29 05:16:15;;;;;;;42.30;38.40;;;;;;;-0.97;100.00;99714.86;106776;1284;22570;-90
2024/01/29 05:18:43;;;;;;;45.00;40.90;;;;;;;-0.98;100.00;99716.85;106651;1283;22682;-90
2024/01/29 05:21:12;;;;;;;44.90;40.90;;;;;;;-1.00;100.00;99717.23;107483;1284;24178;-90
2024/01/29 05:23:41;;;;;;;43.30;39.40;;;;;;;-1.01;100.00;99716.39;107278;1284;22666;-89
2024/01/29 05:26:10;;;;;;;40.10;36.40;;;;;;;-1.05;100.00;99719.86;106570;1289;22690;-91
2024/01/29 05:28:38;;;;;;;40.50;36.50;;;;;;;-1.09;100.00;99718.86;106652;1289;22666;-91
2024/01/29 05:31:06;;;;;;;37.20;33.60;;;;;;;-1.09;100.00;99720.15;106400;1289;25318;-89
2024/01/29 05:33:34;;;;;;;40.00;36.40;;;;;;;-1.09;100.00;99718.52;106812;1289;22599;-88
2024/01/29 05:36:02;;;;;;;41.70;37.90;;;;;;;-1.09;100.00;99719.92;109095;1284;22609;-87
2024/01/29 05:38:32;;;;;;;38.50;34.90;;;;;;;-1.11;100.00;99720.70;109145;1289;22602;-90
2024/01/29 05:41:00;;;;;;;36.50;33.30;;;;;;;-1.16;100.00;99722.01;107183;1289;24226;-89
2024/01/29 05:43:27;;;;;;;35.80;32.40;;;;;;;-1.21;100.00;99723.99;106517;1289;22553;-89
2024/01/29 05:45:56;;;;;;;34.10;30.90;;;;;;;-1.23;100.00;99724.17;106613;1289;22628;-89
2024/01/29 05:48:24;;;;;;;32.10;29.20;;;;;;;-1.22;100.00;99720.77;106440;1285;23946;-87
2024/01/29 05:50:53;;;;;;;31.20;28.40;;;;;;;-1.21;100.00;99718.50;106412;1288;24129;-88
2024/01/29 05:53:24;;;;;;;31.70;28.80;;;;;;;-1.20;100.00;99723.70;106470;1288;25472;-88
2024/01/29 05:55:52;;;;;;;33.80;30.80;;;;;;;-1.21;100.00;99721.83;106563;1286;22580;-91
2024/01/29 05:58:21;;;;;;;35.10;32.00;;;;;;;-1.23;100.00;99718.99;106537;1288;25424;-91
2024/01/29 06:00:49;;;;;;;35.80;32.50;;;;;;;-1.28;100.00;99721.06;106790;1283;22549;-92
2024/01/29 06:03:19;;;;;;;37.10;33.80;;;;;;;-1.33;100.00;99723.27;106929;1278;24213;-93
2024/01/29 06:05:47;;;;;;;34.80;31.60;;;;;;;-1.35;100.00;99723.51;107252;1286;22553;-91
2024/01/29 06:08:15;;;;;;;35.30;32.00;;;;;;;-1.32;100.00;99721.75;107155;1283;22551;-90
2024/01/29 06:10:43;;;;;;;38.80;35.30;;;;;;;-1.31;100.00;99725.36;106979;1288;23110;-91
2024/01/29 06:13:11;;;;;;;44.60;40.50;;;;;;;-1.31;100.00;99723.00;106683;1288;22565;-88
2024/01/29 06:15:39;;;;;;;48.50;43.90;;;;;;;-1.34;100.00;99723.40;106687;1286;24191;-91
2024/01/29 06:18:06;;;;;;;53.90;48.70;;;;;;;-1.38;100.00;99721.14;108808;1285;22590;-88
2024/01/29 06:20:34;;;;;;;50.70;46.00;;;;;;;-1.55;100.00;99699.65;108576;1288;25265;-91
2024/01/29 06:23:03;;;;;;;44.70;40.50;;;;;;;-1.44;100.00;99721.13;106952;1288;25376;-90
2024/01/29 06:25:31;;;;;;;51.60;46.80;;;;;;;-1.43;100.00;99719.75;106581;1285;25510;-92
2024/01/29 06:27:59;;;;;;;52.20;47.30;;;;;;;-1.42;100.00;99722.46;106493;1283;22609;-90
2024/01/29 06:30:27;;;;;;;52.00;47.30;;;;;;;-1.41;100.00;99726.49;106611;1288;22647;-91
2024/01/29 06:32:57;;;;;;;56.60;51.40;;;;;;;-1.44;100.00;99729.45;106558;1288;25347;-90
2024/01/29 06:35:25;;;;;;;55.80;50.80;;;;;;;-1.49;100.00;99734.02;106718;1281;22830;-88
2024/01/29 06:37:52;;;;;;;57.40;52.00;;;;;;;-1.53;100.00;99741.02;106791;1288;22564;-91
2024/01/29 06:40:26;;;;;;;56.90;51.50;;;;;;;-1.55;100.00;99737.46;106860;1288;22581;-90
2024/01/29 06:42:58;;;;;;;56.00;50.70;;;;;;;-1.54;100.00;99743.75;106843;1288;22587;-88
2024/01/29 06:45:26;;;;;;;56.80;51.30;;;;;;;-1.52;100.00;99745.10;107262;1288;22644;-91
2024/01/29 06:47:56;;;;;;;61.30;55.50;;;;;;;-1.50;100.00;99744.04;107929;1284;22554;-91
2024/01/29 06:50:24;;;;;;;67.90;61.10;;;;;;;-1.48;100.00;99742.96;107285;1283;24193;-89
2024/01/29 06:52:52;;;;;;;64.70;58.30;;;;;;;-1.49;100.00;99747.06;106557;1286;22767;-92
2024/01/29 06:55:20;;;;;;;63.60;57.40;;;;;;;-1.49;100.00;99747.09;106412;1288;22551;-90
2024/01/29 06:57:48;;;;;;;58.40;52.40;;;;;;;-1.51;100.00;99744.17;106522;1288;22550;-92
2024/01/29 07:00:17;;;;;;;59.40;53.30;;;;;;;-1.52;100.00;99746.79;106417;1288;25271;-90
2024/01/29 07:02:45;;;;;;;53.90;48.50;;;;;;;-1.53;100.00;99748.45;106499;1288;22485;-89
2024/01/29 07:05:13;;;;;;;52.90;47.30;;;;;;;-1.53;100.00;99746.52;106614;1289;22666;-92
2024/01/29 07:07:41;;;;;;;57.30;47.20;;;;;;;-1.50;100.00;99747.94;106616;1288;23042;-89
2024/01/29 07:10:09;;;;;;;65.20;50.10;;;;;;;-1.53;100.00;99750.02;106472;1288;24367;-89
2024/01/29 07:12:37;;;;;;;56.20;50.40;;;;;;;-1.54;100.00;99750.70;106376;1288;24077;-89
2024/01/29 07:15:07;;;;;;;55.80;50.50;;;;;;;-1.56;100.00;99748.39;106394;1288;22554;-87
2024/01/29 07:17:34;;;;;;;61.00;55.00;;;;;;;-1.55;100.00;99749.98;106383;1288;24502;-88
2024/01/29 07:20:03;;;;;;;61.80;55.80;;;;;;;-1.51;100.00;99749.39;106455;1288;23164;-86
2024/01/29 07:22:37;;;;;;;57.20;51.60;;;;;;;-1.42;100.00;99752.30;106393;1282;22805;-87
2024/01/29 07:25:06;;;;;;;58.40;52.50;;;;;;;-1.34;100.00;99748.61;106539;1287;22992;-86
2024/01/29 07:27:34;;;;;;;56.20;51.00;;;;;;;-1.30;100.00;99748.32;106529;1288;22683;-86
2024/01/29 07:30:03;;;;;;;58.90;53.60;;;;;;;-1.32;100.00;99751.42;106449;1286;22563;-86
2024/01/29 07:32:31;;;;;;;57.90;52.70;;;;;;;-1.36;100.00;99750.88;106428;1286;22890;-86
2024/01/29 07:35:00;;;;;;;61.70;55.80;;;;;;;-1.33;100.00;99753.27;106371;1286;23844;-85
2024/01/29 07:37:29;;;;;;;53.30;48.30;;;;;;;-1.32;100.00;99751.95;106415;1282;23338;-87
2024/01/29 07:39:58;;;;;;;49.00;44.50;;;;;;;-1.29;100.00;99753.61;106381;1283;25434;-86
2024/01/29 07:42:26;;;;;;;49.90;45.40;;;;;;;-1.27;100.00;99756.89;106294;1283;22769;-88
2024/01/29 07:45:17;;;;;;;51.30;46.80;;;;;;;-1.25;100.00;99757.73;106384;1289;25294;-87
2024/01/29 07:48:04;;;;;;;53.50;48.80;;;;;;;-1.22;100.00;99753.72;106355;1288;22545;-89
2024/01/29 07:50:33;;;;;;;45.50;41.50;;;;;;;-1.19;100.00;99756.38;108676;1282;22600;-86
2024/01/29 07:53:00;;;;;;;44.20;40.50;;;;;;;-1.11;100.00;99761.61;107716;1288;22559;-87
2024/01/29 07:55:30;;;;;;;44.20;40.30;;;;;;;-1.00;100.00;99764.23;106314;1288;24244;-87
2024/01/29 07:57:58;;;;;;;48.30;44.10;;;;;;;-0.87;100.00;99757.11;106378;1286;22530;-86
2024/01/29 08:00:26;;;;;;;44.00;40.10;;;;;;;-0.79;100.00;99756.52;106767;1288;24194;-90
2024/01/29 08:02:56;;;;;;;49.00;44.60;;;;;;;-0.73;100.00;99754.41;107795;1288;22606;-88
2024/01/29 08:05:25;;;;;;;52.40;47.70;;;;;;;-0.67;100.00;99748.95;108139;1288;22942;-86
2024/01/29 08:07:58;;;;;;;48.30;43.90;;;;;;;-0.62;100.00;99749.04;109743;1267;23351;31
2024/01/29 08:10:26;;;;;;;38.40;35.00;;;;;;;-0.63;100.00;99728.66;105358;1267;22779;-87
2024/01/29 08:12:54;;;;;;;40.50;36.90;;;;;;;-0.44;100.00;99741.10;106602;1280;24234;-88
2024/01/29 08:15:23;;;;;;;34.40;31.50;;;;;;;-0.34;100.00;99735.30;106696;1280;22559;-88
2024/01/29 08:17:52;;;;;;;35.10;32.10;;;;;;;-0.22;100.00;99732.82;106734;1285;24256;-90
2024/01/29 08:20:20;;;;;;;33.40;30.50;;;;;;;-0.13;100.00;99729.07;106653;1286;24315;-91
2024/01/29 08:22:48;;;;;;;34.70;31.60;;;;;;;-0.05;100.00;99735.15;106499;1286;24664;-88
2024/01/29 08:25:17;;;;;;;30.00;27.40;;;;;;;0.04;100.00;99738.77;106558;1281;22556;-86
2024/01/29 08:27:45;;;;;;;30.30;27.70;;;;;;;0.08;100.00;99737.11;106527;1283;23047;-87
2024/01/29 08:30:13;;;;;;;29.80;27.20;;;;;;;0.14;100.00;99736.23;106851;1286;23135;-84
2024/01/29 08:32:43;;;;;;;29.70;26.80;;;;;;;0.23;100.00;99733.66;106549;1280;25188;-84
2024/01/29 08:35:11;;;;;;;30.60;27.60;;;;;;;0.35;100.00;99730.81;106547;1286;22596;-85
2024/01/29 08:37:41;;;;;;;32.70;29.70;;;;;;;0.45;100.00;99732.77;106541;1286;22541;-84
2024/01/29 08:40:09;;;;;;;34.20;31.20;;;;;;;0.53;100.00;99737.90;106635;1286;25395;-87
2024/01/29 08:42:37;;;;;;;32.00;29.10;;;;;;;0.57;100.00;99734.72;106606;1280;24264;-85
2024/01/29 08:45:06;;;;;;;29.70;27.00;;;;;;;0.58;100.00;99731.25;106659;1286;22998;-87
2024/01/29 08:47:34;;;;;;;30.10;27.40;;;;;;;0.63;100.00;99731.88;107262;1283;24321;-94
2024/01/29 08:50:02;;;;;;;26.00;23.60;;;;;;;0.70;100.00;99733.95;107776;1281;23156;-90
2024/01/29 08:52:30;;;;;;;29.20;26.50;;;;;;;0.85;100.00;99731.23;108217;1284;22565;-91
2024/01/29 08:54:58;;;;;;;29.70;26.90;;;;;;;0.93;100.00;99727.14;108314;1283;26642;-91
2024/01/29 08:57:28;;;;;;;31.20;28.40;;;;;;;1.04;100.00;99731.39;108842;1269;22557;-90
2024/01/29 08:59:56;;;;;;;31.40;28.50;;;;;;;1.16;100.00;99736.31;107741;1278;23172;-88
2024/01/29 09:02:27;;;;;;;31.20;28.50;;;;;;;1.25;100.00;99745.04;108097;1278;22551;-86
2024/01/29 09:04:55;;;;;;;31.40;28.50;;;;;;;1.33;100.00;99750.20;107333;1285;23444;-84
2024/01/29 09:07:24;;;;;;;29.00;26.20;;;;;;;1.44;100.00;99752.23;106578;1283;24338;-85
2024/01/29 09:09:52;;;;;;;30.40;27.60;;;;;;;1.50;100.00;99752.13;106695;1283;22605;-85
2024/01/29 09:12:21;;;;;;;29.20;26.70;;;;;;;1.59;100.00;99753.48;106812;1278;22600;-85
2024/01/29 09:14:49;;;;;;;31.40;28.50;;;;;;;1.67;100.00;99750.92;107031;1275;22511;-92
2024/01/29 09:17:17;;;;;;;33.50;30.50;;;;;;;1.74;100.00;99750.36;107269;1278;24149;-90
2024/01/29 09:19:45;;;;;;;35.20;32.00;;;;;;;1.78;100.00;99752.30;107065;1282;22670;-90
2024/01/29 09:22:15;;;;;;;26.40;23.90;;;;;;;1.85;100.00;99750.95;109787;1287;22583;-92
2024/01/29 09:24:43;;;;;;;28.20;25.60;;;;;;;1.92;100.00;99747.83;109239;1287;22588;-94
2024/01/29 09:28:11;;;;;;;28.40;25.80;;;;;;;2.02;100.00;99747.09;107480;1287;22666;-90
2024/01/29 09:32:40;;;;;;;28.10;25.50;;;;;;;2.15;100.00;99746.59;106989;1287;22575;-88
2024/01/29 09:36:10;;;;;;;30.40;27.70;;;;;;;2.26;100.00;99752.77;107584;1280;26194;-89
2024/01/29 09:38:37;;;;;;;26.30;23.80;;;;;;;2.32;100.00;99755.27;106594;1280;22790;-90
2024/01/29 09:41:05;;;;;;;23.90;21.70;;;;;;;2.36;100.00;99755.26;106662;1287;24399;-91
2024/01/29 09:43:35;;;;;;;23.30;21.10;;;;;;;2.42;100.00;99751.70;106717;1286;24748;-84
2024/01/29 09:46:04;;;;;;;25.90;23.60;;;;;;;2.46;100.00;99754.42;106793;1276;22571;-84
2024/01/29 09:48:33;;;;;;;27.90;25.30;;;;;;;2.51;100.00;99748.71;106592;1287;22870;-86
2024/01/29 09:51:03;;;;;;;30.60;27.90;;;;;;;2.55;100.00;99748.52;106613;1280;22553;-86
2024/01/29 09:53:35;;;;;;;29.00;26.40;;;;;;;2.60;100.00;99747.21;106557;1280;22653;-87
2024/01/29 09:56:04;;;;;;;26.00;23.60;;;;;;;2.62;100.00;99749.48;106390;1287;285352;-87
2024/01/29 09:58:32;;;;;;;25.90;23.50;;;;;;;2.66;100.00;99749.61;106567;1280;24385;-89
2024/01/29 10:01:03;;;;;;;26.50;24.10;;;;;;;2.75;100.00;99746.64;106682;1287;23485;-85
2024/01/29 10:03:36;;;;;;;22.80;20.60;;;;;;;2.81;100.00;99748.60;106684;1281;23450;-83
2024/01/29 10:06:05;;;;;;;23.60;21.50;;;;;;;2.89;100.00;99746.74;106566;1286;24038;-83
2024/01/29 10:08:34;;;;;;;25.10;22.90;;;;;;;2.93;100.00;99747.80;106489;1265;25316;-84
2024/01/29 10:11:03;;;;;;;24.90;22.60;;;;;;;2.93;100.00;99746.61;106563;1280;22550;-84
2024/01/29 10:13:31;;;;;;;24.60;22.50;;;;;;;3.03;100.00;99754.70;106674;1281;24215;-84
2024/01/29 10:16:00;;;;;;;29.10;26.60;;;;;;;3.06;100.00;99752.93;106550;1280;23396;-83
2024/01/29 10:18:30;;;;;;;27.30;25.00;;;;;;;3.08;100.00;99747.70;106644;1286;24239;-85
2024/01/29 10:21:05;;;;;;;26.00;23.70;;;;;;;3.16;100.00;99742.77;106616;1273;23544;-83
2024/01/29 10:23:33;;;;;;;25.20;22.90;;;;;;;3.24;100.00;99742.08;106553;1287;22559;-85
2024/01/29 10:26:02;;;;;;;22.90;20.70;;;;;;;3.27;100.00;99733.30;106509;1268;22551;-85
2024/01/29 10:28:30;;;;;;;29.10;26.30;;;;;;;3.41;100.00;99739.61;106445;1286;23254;-85
2024/01/29 10:30:58;;;;;;;27.90;25.40;;;;;;;3.49;100.00;99736.56;106482;1281;24411;-86
2024/01/29 10:33:27;;;;;;;24.50;22.30;;;;;;;3.57;100.00;99735.31;106661;1274;22646;-86
2024/01/29 10:36:01;;;;;;;24.10;21.90;;;;;;;3.65;100.00;99734.56;106645;1280;23846;-86
2024/01/29 10:38:34;;;;;;;23.30;21.00;;;;;;;3.71;100.00;99728.31;106625;1286;25367;-86
2024/01/29 10:41:06;;;;;;;24.40;22.00;;;;;;;3.75;100.00;99722.98;106656;1279;24246;-85
2024/01/29 10:43:41;;;;;;;23.00;20.90;;;;;;;3.85;100.00;99723.27;106610;1279;22566;-84
2024/01/29 10:46:12;;;;;;;24.50;22.30;;;;;;;3.95;100.00;99719.96;106649;1280;22574;-85
2024/01/29 10:48:42;;;;;;;24.10;21.80;;;;;;;4.05;100.00;99721.61;106680;1280;22578;-85
2024/01/29 10:51:13;;;;;;;24.60;22.50;;;;;;;4.16;100.00;99716.39;106843;1286;22568;-85
2024/01/29 10:53:42;;;;;;;28.60;25.90;;;;;;;4.26;100.00;99717.65;106944;1286;22550;-85
2024/01/29 10:56:11;;;;;;;29.90;27.10;;;;;;;4.35;100.00;99720.69;107758;1286;23143;-85
2024/01/29 10:58:39;;;;;;;25.70;23.20;;;;;;;4.44;100.00;99717.52;108557;1287;23760;-86
2024/01/29 11:01:10;;;;;;;25.30;22.90;;;;;;;4.48;100.00;99719.02;107877;1286;22657;-87
2024/01/29 11:03:41;;;;;;;25.90;23.40;;;;;;;4.55;100.00;99719.46;108254;1287;22595;-92
2024/01/29 11:06:15;;;;;;;26.10;23.70;;;;;;;4.64;100.00;99716.95;107429;1286;22557;-92
2024/01/29 11:08:47;;;;;;;29.70;26.80;;;;;;;4.72;100.00;99716.40;107356;1280;25419;-84
2024/01/29 11:11:17;;;;;;;29.50;26.60;;;;;;;4.84;100.00;99722.92;106631;1283;24194;-84
2024/01/29 11:13:45;;;;;;;29.60;26.80;;;;;;;4.95;100.00;99725.20;106587;1280;23270;-83
2024/01/29 11:16:13;;;;;;;34.40;31.10;;;;;;;5.04;100.00;99721.67;107454;1280;22580;-90